sensor_id;sensor_type;location;lat;lon;timestamp;pressure;altitude;pressure_sealevel;temperature;humidity
57847;BME280;43675;50.030;21.952;2022-11-28T00:01:39;99686.49;;;3.50;73.02
57847;BME280;43675;50.030;21.952;2022-11-28T00:04:06;99686.98;;;3.50;73.02
57847;BME280;43675;50.030;21.952;2022-11-28T00:06:37;99681.13;;;3.46;73.06
57847;BME280;43675;50.030;21.952;2022-11-28T00:09:04;99684.62;;;3.47;73.07
57847;BME280;43675;50.030;21.952;2022-11-28T00:11:30;99684.27;;;3.46;73.07
57847;BME280;43675;50.030;21.952;2022-11-28T00:13:56;99681.97;;;3.47;73.07
57847;BME280;43675;50.030;21.952;2022-11-28T00:16:22;99676.17;;;3.47;73.05
57847;BME280;43675;50.030;21.952;2022-11-28T00:18:49;99673.03;;;3.48;73.04
57847;BME280;43675;50.030;21.952;2022-11-28T00:21:15;99673.39;;;3.49;73.03
57847;BME280;43675;50.030;21.952;2022-11-28T00:23:49;99676.53;;;3.48;73.02
57847;BME280;43675;50.030;21.952;2022-11-28T00:26:18;99677.86;;;3.48;73.02
57847;BME280;43675;50.030;21.952;2022-11-28T00:28:44;99671.84;;;3.46;73.04
57847;BME280;43675;50.030;21.952;2022-11-28T00:31:14;99672.98;;;3.44;73.09
57847;BME280;43675;50.030;21.952;2022-11-28T00:33:47;99666.34;;;3.44;73.10
57847;BME280;43675;50.030;21.952;2022-11-28T00:36:13;99668.64;;;3.43;73.10
57847;BME280;43675;50.030;21.952;2022-11-28T00:38:39;99667.67;;;3.44;73.09
57847;BME280;43675;50.030;21.952;2022-11-28T00:41:15;99672.98;;;3.44;73.07
57847;BME280;43675;50.030;21.952;2022-11-28T00:43:49;99675.28;;;3.43;73.05
57847;BME280;43675;50.030;21.952;2022-11-28T00:46:17;99676.91;;;3.40;73.09
57847;BME280;43675;50.030;21.952;2022-11-28T00:48:43;99676.73;;;3.41;73.09
57847;BME280;43675;50.030;21.952;2022-11-28T00:51:15;99672.76;;;3.41;73.08
57847;BME280;43675;50.030;21.952;2022-11-28T00:53:42;99672.27;;;3.42;73.05
57847;BME280;43675;50.030;21.952;2022-11-28T00:56:13;99674.60;;;3.41;73.05
57847;BME280;43675;50.030;21.952;2022-11-28T00:58:39;99666.28;;;3.40;73.08
57847;BME280;43675;50.030;21.952;2022-11-28T01:01:17;99669.91;;;3.39;73.09
57847;BME280;43675;50.030;21.952;2022-11-28T01:03:52;99667.75;;;3.38;73.12
57847;BME280;43675;50.030;21.952;2022-11-28T01:06:34;99669.02;;;3.34;73.19
57847;BME280;43675;50.030;21.952;2022-11-28T01:08:59;99665.52;;;3.33;73.24
57847;BME280;43675;50.030;21.952;2022-11-28T01:11:32;99665.69;;;3.32;73.28
57847;BME280;43675;50.030;21.952;2022-11-28T01:14:05;99660.38;;;3.32;73.26
57847;BME280;43675;50.030;21.952;2022-11-28T01:16:31;99658.34;;;3.30;73.29
57847;BME280;43675;50.030;21.952;2022-11-28T01:18:57;99658.56;;;3.32;73.26
57847;BME280;43675;50.030;21.952;2022-11-28T01:21:23;99643.48;;;3.33;73.25
57847;BME280;43675;50.030;21.952;2022-11-28T01:23:49;99646.47;;;3.34;73.26
57847;BME280;43675;50.030;21.952;2022-11-28T01:26:17;99637.66;;;3.33;73.26
57847;BME280;43675;50.030;21.952;2022-11-28T01:28:44;99644.16;;;3.35;73.23
57847;BME280;43675;50.030;21.952;2022-11-28T01:31:11;99638.38;;;3.36;73.22
57847;BME280;43675;50.030;21.952;2022-11-28T01:33:38;99632.58;;;3.36;73.22
57847;BME280;43675;50.030;21.952;2022-11-28T01:36:04;99629.08;;;3.36;73.22
57847;BME280;43675;50.030;21.952;2022-11-28T01:38:30;99629.08;;;3.36;73.21
57847;BME280;43675;50.030;21.952;2022-11-28T01:40:56;99629.08;;;3.36;73.22
57847;BME280;43675;50.030;21.952;2022-11-28T01:43:28;99625.94;;;3.36;73.23
57847;BME280;43675;50.030;21.952;2022-11-28T01:45:55;99621.61;;;3.35;73.23
57847;BME280;43675;50.030;21.952;2022-11-28T01:48:26;99621.97;;;3.36;73.22
57847;BME280;43675;50.030;21.952;2022-11-28T01:50:55;99619.66;;;3.37;73.22
57847;BME280;43675;50.030;21.952;2022-11-28T01:53:22;99621.13;;;3.36;73.21
57847;BME280;43675;50.030;21.952;2022-11-28T01:55:57;99617.98;;;3.36;73.21
57847;BME280;43675;50.030;21.952;2022-11-28T01:58:40;99614.00;;;3.36;73.24
57847;BME280;43675;50.030;21.952;2022-11-28T02:01:07;99619.61;;;3.33;73.25
57847;BME280;43675;50.030;21.952;2022-11-28T02:03:43;99624.39;;;3.33;73.32
57847;BME280;43675;50.030;21.952;2022-11-28T02:06:05;99623.59;;;3.33;73.29
57847;BME280;43675;50.030;21.952;2022-11-28T02:08:33;99617.77;;;3.33;73.31
57847;BME280;43675;50.030;21.952;2022-11-28T02:14:08;99619.31;;;3.36;73.27
57847;BME280;43675;50.030;21.952;2022-11-28T02:16:44;99618.77;;;3.32;73.29
57847;BME280;43675;50.030;21.952;2022-11-28T02:22:04;99615.41;;;3.30;73.31
57847;BME280;43675;50.030;21.952;2022-11-28T02:30:10;99610.21;;;3.25;73.41
57847;BME280;43675;50.030;21.952;2022-11-28T02:32:49;99606.55;;;3.26;73.39
57847;BME280;43675;50.030;21.952;2022-11-28T02:40:25;99613.35;;;3.24;73.37
57847;BME280;43675;50.030;21.952;2022-11-28T02:45:49;99607.34;;;3.22;73.38
57847;BME280;43675;50.030;21.952;2022-11-28T02:53:36;99605.70;;;3.12;73.46
57847;BME280;43675;50.030;21.952;2022-11-28T02:56:03;99598.23;;;3.11;73.49
57847;BME280;43675;50.030;21.952;2022-11-28T02:58:36;99587.77;;;3.10;73.52
57847;BME280;43675;50.030;21.952;2022-11-28T03:01:02;99593.23;;;3.08;73.53
57847;BME280;43675;50.030;21.952;2022-11-28T03:03:54;99587.58;;;3.07;73.54
57847;BME280;43675;50.030;21.952;2022-11-28T03:06:31;99587.22;;;3.06;73.58
57847;BME280;43675;50.030;21.952;2022-11-28T03:09:05;99589.33;;;3.03;73.64
57847;BME280;43675;50.030;21.952;2022-11-28T03:11:49;99589.49;;;3.01;73.67
57847;BME280;43675;50.030;21.952;2022-11-28T03:24:56;99579.02;;;3.00;73.66
57847;BME280;43675;50.030;21.952;2022-11-28T03:27:25;99574.42;;;3.02;73.63
57847;BME280;43675;50.030;21.952;2022-11-28T03:29:56;99577.08;;;3.02;73.61
57847;BME280;43675;50.030;21.952;2022-11-28T03:32:26;99571.12;;;3.04;73.58
57847;BME280;43675;50.030;21.952;2022-11-28T03:35:09;99567.80;;;3.02;73.55
57847;BME280;43675;50.030;21.952;2022-11-28T03:37:39;99563.46;;;3.01;73.53
57847;BME280;43675;50.030;21.952;2022-11-28T03:40:09;99564.08;;;2.99;73.55
57847;BME280;43675;50.030;21.952;2022-11-28T03:42:39;99569.87;;;2.98;73.52
57847;BME280;43675;50.030;21.952;2022-11-28T03:45:08;99557.27;;;2.96;73.55
57847;BME280;43675;50.030;21.952;2022-11-28T03:47:43;99557.55;;;2.93;73.56
57847;BME280;43675;50.030;21.952;2022-11-28T03:50:13;99560.34;;;2.92;73.59
57847;BME280;43675;50.030;21.952;2022-11-28T03:52:49;99560.28;;;2.88;73.61
57847;BME280;43675;50.030;21.952;2022-11-28T03:58:01;99566.91;;;2.88;73.63
57847;BME280;43675;50.030;21.952;2022-11-28T04:00:26;99563.42;;;2.87;73.63
57847;BME280;43675;50.030;21.952;2022-11-28T04:03:23;99557.28;;;2.86;73.62
57847;BME280;43675;50.030;21.952;2022-11-28T04:05:57;99551.00;;;2.88;73.62
57847;BME280;43675;50.030;21.952;2022-11-28T04:08:26;99555.47;;;2.87;73.60
57847;BME280;43675;50.030;21.952;2022-11-28T04:13:38;99551.84;;;2.88;73.60
57847;BME280;43675;50.030;21.952;2022-11-28T04:16:19;99547.52;;;2.87;73.59
57847;BME280;43675;50.030;21.952;2022-11-28T04:21:37;99548.84;;;2.87;73.54
57847;BME280;43675;50.030;21.952;2022-11-28T04:24:05;99548.84;;;2.87;73.51
57847;BME280;43675;50.030;21.952;2022-11-28T04:26:46;99549.48;;;2.85;73.53
57847;BME280;43675;50.030;21.952;2022-11-28T04:29:14;99554.98;;;2.88;73.51
57847;BME280;43675;50.030;21.952;2022-11-28T04:31:49;99554.98;;;2.88;73.49
57847;BME280;43675;50.030;21.952;2022-11-28T04:34:17;99549.55;;;2.89;73.46
57847;BME280;43675;50.030;21.952;2022-11-28T04:36:52;99556.66;;;2.89;73.46
57847;BME280;43675;50.030;21.952;2022-11-28T04:39:24;99551.71;;;2.90;73.48
57847;BME280;43675;50.030;21.952;2022-11-28T04:42:19;99550.70;;;2.91;73.41
57847;BME280;43675;50.030;21.952;2022-11-28T04:44:50;99553.03;;;2.90;73.41
57847;BME280;43675;50.030;21.952;2022-11-28T04:47:15;99552.33;;;2.88;73.47
57847;BME280;43675;50.030;21.952;2022-11-28T04:49:40;99548.70;;;2.89;73.44
57847;BME280;43675;50.030;21.952;2022-11-28T04:58:24;99548.35;;;2.88;73.47
57847;BME280;43675;50.030;21.952;2022-11-28T05:00:52;99545.70;;;2.88;73.49
57847;BME280;43675;50.030;21.952;2022-11-28T05:03:19;99545.34;;;2.86;73.45
57847;BME280;43675;50.030;21.952;2022-11-28T05:05:50;99548.05;;;2.91;73.41
57847;BME280;43675;50.030;21.952;2022-11-28T05:08:16;99545.76;;;2.92;73.37
57847;BME280;43675;50.030;21.952;2022-11-28T05:10:42;99544.44;;;2.92;73.35
57847;BME280;43675;50.030;21.952;2022-11-28T05:13:08;99546.95;;;2.93;73.33
57847;BME280;43675;50.030;21.952;2022-11-28T05:15:34;99545.14;;;2.94;73.32
57847;BME280;43675;50.030;21.952;2022-11-28T05:18:00;99542.97;;;2.93;73.24
57847;BME280;43675;50.030;21.952;2022-11-28T05:20:26;99543.95;;;2.92;73.19
57847;BME280;43675;50.030;21.952;2022-11-28T05:22:52;99547.08;;;2.92;73.17
57847;BME280;43675;50.030;21.952;2022-11-28T05:25:18;99541.59;;;2.89;73.17
57847;BME280;43675;50.030;21.952;2022-11-28T05:27:43;99540.56;;;2.86;73.18
57847;BME280;43675;50.030;21.952;2022-11-28T05:30:10;99545.29;;;2.82;73.16
57847;BME280;43675;50.030;21.952;2022-11-28T05:32:42;99549.72;;;2.78;73.14
57847;BME280;43675;50.030;21.952;2022-11-28T05:35:15;99544.49;;;2.72;73.18
57847;BME280;43675;50.030;21.952;2022-11-28T05:37:41;99550.38;;;2.66;73.25
57847;BME280;43675;50.030;21.952;2022-11-28T05:40:07;99547.80;;;2.61;73.30
57847;BME280;43675;50.030;21.952;2022-11-28T05:42:34;99549.77;;;2.59;73.36
57847;BME280;43675;50.030;21.952;2022-11-28T05:45:00;99547.38;;;2.56;73.42
57847;BME280;43675;50.030;21.952;2022-11-28T05:47:29;99547.55;;;2.54;73.47
57847;BME280;43675;50.030;21.952;2022-11-28T05:49:55;99547.55;;;2.54;73.52
57847;BME280;43675;50.030;21.952;2022-11-28T05:52:20;99543.22;;;2.53;73.55
57847;BME280;43675;50.030;21.952;2022-11-28T05:54:46;99543.70;;;2.53;73.55
57847;BME280;43675;50.030;21.952;2022-11-28T05:57:12;99546.48;;;2.51;73.59
57847;BME280;43675;50.030;21.952;2022-11-28T05:59:37;99536.05;;;2.50;73.59
57847;BME280;43675;50.030;21.952;2022-11-28T06:02:03;99540.31;;;2.47;73.65
57847;BME280;43675;50.030;21.952;2022-11-28T06:04:28;99540.09;;;2.44;73.64
57847;BME280;43675;50.030;21.952;2022-11-28T06:06:54;99543.86;;;2.42;73.65
57847;BME280;43675;50.030;21.952;2022-11-28T06:09:20;99538.02;;;2.38;73.65
57847;BME280;43675;50.030;21.952;2022-11-28T06:11:45;99539.28;;;2.34;73.64
57847;BME280;43675;50.030;21.952;2022-11-28T06:14:11;99535.08;;;2.31;73.69
57847;BME280;43675;50.030;21.952;2022-11-28T06:16:36;99535.84;;;2.28;73.71
57847;BME280;43675;50.030;21.952;2022-11-28T06:19:04;99532.04;;;2.26;73.67
57847;BME280;43675;50.030;21.952;2022-11-28T06:21:30;99528.48;;;2.22;73.69
57847;BME280;43675;50.030;21.952;2022-11-28T06:23:57;99531.42;;;2.19;73.72
57847;BME280;43675;50.030;21.952;2022-11-28T06:26:25;99534.84;;;2.15;73.75
57847;BME280;43675;50.030;21.952;2022-11-28T06:28:57;99539.91;;;2.13;73.85
57847;BME280;43675;50.030;21.952;2022-11-28T06:31:25;99537.55;;;2.10;73.93
57847;BME280;43675;50.030;21.952;2022-11-28T06:33:58;99541.03;;;2.10;73.96
57847;BME280;43675;50.030;21.952;2022-11-28T06:36:25;99539.23;;;2.11;74.00
57847;BME280;43675;50.030;21.952;2022-11-28T06:38:51;99544.52;;;2.11;74.05
57847;BME280;43675;50.030;21.952;2022-11-28T06:41:23;99540.55;;;2.11;74.09
57847;BME280;43675;50.030;21.952;2022-11-28T06:43:48;99543.40;;;2.13;74.21
57847;BME280;43675;50.030;21.952;2022-11-28T06:46:17;99539.30;;;2.15;74.26
57847;BME280;43675;50.030;21.952;2022-11-28T06:48:43;99532.52;;;2.16;74.26
57847;BME280;43675;50.030;21.952;2022-11-28T06:51:09;99529.61;;;2.19;74.30
57847;BME280;43675;50.030;21.952;2022-11-28T06:53:35;99533.42;;;2.21;74.34
57847;BME280;43675;50.030;21.952;2022-11-28T06:56:12;99535.78;;;2.24;74.38
57847;BME280;43675;50.030;21.952;2022-11-28T06:58:39;99534.40;;;2.29;74.37
57847;BME280;43675;50.030;21.952;2022-11-28T07:01:17;99538.08;;;2.32;74.39
57847;BME280;43675;50.030;21.952;2022-11-28T07:03:43;99539.63;;;2.35;74.38
57847;BME280;43675;50.030;21.952;2022-11-28T07:06:10;99539.18;;;2.39;74.36
57847;BME280;43675;50.030;21.952;2022-11-28T07:08:36;99532.62;;;2.44;74.31
57847;BME280;43675;50.030;21.952;2022-11-28T07:11:17;99532.36;;;2.47;74.25
57847;BME280;43675;50.030;21.952;2022-11-28T07:13:49;99530.39;;;2.49;74.17
57847;BME280;43675;50.030;21.952;2022-11-28T07:16:21;99528.87;;;2.46;74.12
57847;BME280;43675;50.030;21.952;2022-11-28T07:18:48;99531.17;;;2.45;74.08
57847;BME280;43675;50.030;21.952;2022-11-28T07:21:15;99533.11;;;2.43;74.02
57847;BME280;43675;50.030;21.952;2022-11-28T07:23:41;99531.59;;;2.41;73.99
57847;BME280;43675;50.030;21.952;2022-11-28T07:26:09;99534.72;;;2.40;74.00
57847;BME280;43675;50.030;21.952;2022-11-28T07:28:35;99529.23;;;2.37;74.03
57847;BME280;43675;50.030;21.952;2022-11-28T07:31:07;99536.20;;;2.38;74.10
57847;BME280;43675;50.030;21.952;2022-11-28T07:33:34;99535.37;;;2.38;74.13
57847;BME280;43675;50.030;21.952;2022-11-28T07:36:05;99538.56;;;2.42;74.20
57847;BME280;43675;50.030;21.952;2022-11-28T07:38:32;99536.82;;;2.46;74.27
57847;BME280;43675;50.030;21.952;2022-11-28T07:41:10;99534.78;;;2.54;74.31
57847;BME280;43675;50.030;21.952;2022-11-28T07:43:36;99536.55;;;2.63;74.32
57847;BME280;43675;50.030;21.952;2022-11-28T07:46:11;99539.68;;;2.72;74.37
57847;BME280;43675;50.030;21.952;2022-11-28T07:48:37;99541.48;;;2.81;74.34
57847;BME280;43675;50.030;21.952;2022-11-28T07:51:08;99538.64;;;2.92;74.29
57847;BME280;43675;50.030;21.952;2022-11-28T07:53:41;99533.38;;;3.06;74.21
57847;BME280;43675;50.030;21.952;2022-11-28T07:56:10;99530.84;;;3.18;74.11
57847;BME280;43675;50.030;21.952;2022-11-28T07:58:36;99532.05;;;3.33;73.97
57847;BME280;43675;50.030;21.952;2022-11-28T08:01:19;99532.17;;;3.45;73.80
57847;BME280;43675;50.030;21.952;2022-11-28T08:03:46;99516.69;;;3.68;73.51
57847;BME280;43675;50.030;21.952;2022-11-28T08:06:13;99516.69;;;3.68;73.51
57847;BME280;43675;50.030;21.952;2022-11-28T08:08:39;99514.30;;;3.78;73.35
57847;BME280;43675;50.030;21.952;2022-11-28T08:11:21;99515.56;;;3.88;73.18
57847;BME280;43675;50.030;21.952;2022-11-28T08:13:47;99520.11;;;3.96;73.00
57847;BME280;43675;50.030;21.952;2022-11-28T08:16:20;99523.66;;;4.04;72.76
57847;BME280;43675;50.030;21.952;2022-11-28T08:18:43;99520.58;;;4.13;72.52
57847;BME280;43675;50.030;21.952;2022-11-28T08:21:15;99513.34;;;4.19;72.31
57847;BME280;43675;50.030;21.952;2022-11-28T08:23:40;99519.36;;;4.25;72.08
57847;BME280;43675;50.030;21.952;2022-11-28T08:26:08;99516.20;;;4.25;71.99
57847;BME280;43675;50.030;21.952;2022-11-28T08:28:35;99513.41;;;4.27;71.93
57847;BME280;43675;50.030;21.952;2022-11-28T08:33:36;99516.13;;;4.35;71.82
57847;BME280;43675;50.030;21.952;2022-11-28T08:36:10;99515.36;;;4.43;71.75
57847;BME280;43675;50.030;21.952;2022-11-28T08:38:36;99508.91;;;4.49;71.55
57847;BME280;43675;50.030;21.952;2022-11-28T08:41:04;99511.42;;;4.55;71.45
57847;BME280;43675;50.030;21.952;2022-11-28T08:43:37;99516.48;;;4.62;71.21
57847;BME280;43675;50.030;21.952;2022-11-28T08:46:10;99512.34;;;4.67;71.02
57847;BME280;43675;50.030;21.952;2022-11-28T08:48:38;99509.08;;;4.73;70.88
57847;BME280;43675;50.030;21.952;2022-11-28T08:51:04;99505.14;;;4.82;70.74
57847;BME280;43675;50.030;21.952;2022-11-28T08:53:31;99501.48;;;4.87;70.57
57847;BME280;43675;50.030;21.952;2022-11-28T08:55:56;99510.00;;;4.94;70.42
57847;BME280;43675;50.030;21.952;2022-11-28T08:58:23;99504.23;;;5.03;70.20
57847;BME280;43675;50.030;21.952;2022-11-28T09:00:49;99499.13;;;5.09;69.97
57847;BME280;43675;50.030;21.952;2022-11-28T09:03:17;99502.14;;;5.18;69.78
57847;BME280;43675;50.030;21.952;2022-11-28T09:05:44;99496.22;;;5.29;69.55
57847;BME280;43675;50.030;21.952;2022-11-28T09:08:17;99498.91;;;5.37;69.28
57847;BME280;43675;50.030;21.952;2022-11-28T09:10:46;99491.94;;;5.44;69.03
57847;BME280;43675;50.030;21.952;2022-11-28T09:13:19;99490.45;;;5.53;68.73
57847;BME280;43675;50.030;21.952;2022-11-28T09:15:45;99491.48;;;5.60;68.54
57847;BME280;43675;50.030;21.952;2022-11-28T09:18:12;99479.17;;;5.63;68.36
57847;BME280;43675;50.030;21.952;2022-11-28T09:20:38;99480.52;;;5.71;68.15
57847;BME280;43675;50.030;21.952;2022-11-28T09:23:05;99476.54;;;5.80;67.87
57847;BME280;43675;50.030;21.952;2022-11-28T09:25:33;99471.53;;;5.85;67.61
57847;BME280;43675;50.030;21.952;2022-11-28T09:27:59;99477.39;;;5.88;67.56
57847;BME280;43675;50.030;21.952;2022-11-28T09:30:25;99473.58;;;5.91;67.54
57847;BME280;43675;50.030;21.952;2022-11-28T09:32:57;99474.08;;;5.94;67.48
57847;BME280;43675;50.030;21.952;2022-11-28T09:35:23;99467.92;;;5.98;67.37
57847;BME280;43675;50.030;21.952;2022-11-28T09:37:56;99477.40;;;6.04;67.19
57847;BME280;43675;50.030;21.952;2022-11-28T09:40:34;99466.93;;;6.11;66.89
57847;BME280;43675;50.030;21.952;2022-11-28T09:43:11;99471.58;;;6.17;66.71
57847;BME280;43675;50.030;21.952;2022-11-28T09:45:35;99468.57;;;6.20;66.60
57847;BME280;43675;50.030;21.952;2022-11-28T09:48:17;99464.42;;;6.26;66.46
57847;BME280;43675;50.030;21.952;2022-11-28T09:50:38;99468.76;;;6.31;66.19
57847;BME280;43675;50.030;21.952;2022-11-28T09:55:53;99453.56;;;6.39;65.85
57847;BME280;43675;50.030;21.952;2022-11-28T09:58:29;99453.23;;;6.46;65.81
57847;BME280;43675;50.030;21.952;2022-11-28T10:01:16;99450.72;;;6.53;65.70
57847;BME280;43675;50.030;21.952;2022-11-28T10:03:54;99442.20;;;6.57;65.51
57847;BME280;43675;50.030;21.952;2022-11-28T10:06:38;99442.54;;;6.62;65.35
57847;BME280;43675;50.030;21.952;2022-11-28T10:12:34;99435.81;;;6.71;64.88
57847;BME280;43675;50.030;21.952;2022-11-28T10:20:40;99421.78;;;6.85;64.77
57847;BME280;43675;50.030;21.952;2022-11-28T10:23:12;99422.27;;;6.88;64.67
57847;BME280;43675;50.030;21.952;2022-11-28T10:25:54;99417.90;;;6.95;64.28
57847;BME280;43675;50.030;21.952;2022-11-28T10:28:28;99413.87;;;6.99;63.98
57847;BME280;43675;50.030;21.952;2022-11-28T10:34:08;99403.19;;;7.03;63.77
57847;BME280;43675;50.030;21.952;2022-11-28T10:36:46;99397.84;;;7.03;63.91
57847;BME280;43675;50.030;21.952;2022-11-28T10:39:13;99399.68;;;7.03;63.75
57847;BME280;43675;50.030;21.952;2022-11-28T10:44:27;99395.97;;;7.12;63.38
57847;BME280;43675;50.030;21.952;2022-11-28T10:47:04;99399.28;;;7.14;63.14
57847;BME280;43675;50.030;21.952;2022-11-28T10:52:44;99395.23;;;7.22;62.90
57847;BME280;43675;50.030;21.952;2022-11-28T10:57:51;99384.73;;;7.25;62.78
57847;BME280;43675;50.030;21.952;2022-11-28T11:00:16;99385.34;;;7.31;62.51
57847;BME280;43675;50.030;21.952;2022-11-28T11:05:23;99390.98;;;7.40;62.05
57847;BME280;43675;50.030;21.952;2022-11-28T11:07:52;99386.30;;;7.38;61.89
57847;BME280;43675;50.030;21.952;2022-11-28T11:10:36;99380.12;;;7.37;61.95
57847;BME280;43675;50.030;21.952;2022-11-28T11:13:24;99379.12;;;7.38;62.05
57847;BME280;43675;50.030;21.952;2022-11-28T11:15:31;99373.63;;;7.40;62.01
57847;BME280;43675;50.030;21.952;2022-11-28T11:18:00;99379.30;;;7.41;61.91
57847;BME280;43675;50.030;21.952;2022-11-28T11:20:36;99378.95;;;7.40;61.53
57847;BME280;43675;50.030;21.952;2022-11-28T11:23:11;99373.67;;;7.32;61.33
57847;BME280;43675;50.030;21.952;2022-11-28T11:25:50;99379.56;;;7.23;61.45
57847;BME280;43675;50.030;21.952;2022-11-28T11:31:03;99375.44;;;7.17;61.47
57847;BME280;43675;50.030;21.952;2022-11-28T11:33:42;99373.07;;;7.18;61.36
57847;BME280;43675;50.030;21.952;2022-11-28T11:36:28;99372.57;;;7.18;61.39
57847;BME280;43675;50.030;21.952;2022-11-28T11:38:49;99380.08;;;7.19;61.32
57847;BME280;43675;50.030;21.952;2022-11-28T11:41:29;99379.24;;;7.18;61.29
57847;BME280;43675;50.030;21.952;2022-11-28T11:43:56;99376.58;;;7.18;61.23
57847;BME280;43675;50.030;21.952;2022-11-28T11:46:24;99376.09;;;7.14;61.13
57847;BME280;43675;50.030;21.952;2022-11-28T11:48:51;99365.28;;;7.12;60.99
57847;BME280;43675;50.030;21.952;2022-11-28T11:51:24;99371.62;;;7.11;60.87
57847;BME280;43675;50.030;21.952;2022-11-28T11:54:02;99361.77;;;7.11;60.86
57847;BME280;43675;50.030;21.952;2022-11-28T11:56:30;99372.29;;;7.13;60.96
57847;BME280;43675;50.030;21.952;2022-11-28T11:59:00;99372.93;;;7.15;60.97
57847;BME280;43675;50.030;21.952;2022-11-28T12:01:26;99367.45;;;7.12;60.81
57847;BME280;43675;50.030;21.952;2022-11-28T12:04:00;99365.30;;;7.08;60.63
57847;BME280;43675;50.030;21.952;2022-11-28T12:06:39;99363.16;;;7.03;60.49
57847;BME280;43675;50.030;21.952;2022-11-28T12:09:32;99367.02;;;7.01;60.38
57847;BME280;43675;50.030;21.952;2022-11-28T12:12:05;99368.52;;;6.99;60.32
57847;BME280;43675;50.030;21.952;2022-11-28T12:14:31;99364.67;;;6.98;60.37
57847;BME280;43675;50.030;21.952;2022-11-28T12:17:12;99367.87;;;6.97;60.30
57847;BME280;43675;50.030;21.952;2022-11-28T12:31:13;99358.23;;;6.88;60.46
57847;BME280;43675;50.030;21.952;2022-11-28T12:34:03;99357.75;;;6.85;60.60
57847;BME280;43675;50.030;21.952;2022-11-28T12:36:25;99353.41;;;6.84;60.55
57847;BME280;43675;50.030;21.952;2022-11-28T12:41:45;99349.93;;;6.79;60.54
57847;BME280;43675;50.030;21.952;2022-11-28T12:47:16;99348.62;;;6.71;60.58
57847;BME280;43675;50.030;21.952;2022-11-28T12:50:02;99349.83;;;6.64;60.63
57847;BME280;43675;50.030;21.952;2022-11-28T12:52:36;99347.34;;;6.59;60.68
57847;BME280;43675;50.030;21.952;2022-11-28T12:57:56;99355.42;;;6.47;60.64
57847;BME280;43675;50.030;21.952;2022-11-28T13:00:24;99353.74;;;6.46;60.68
57847;BME280;43675;50.030;21.952;2022-11-28T13:05:53;99356.45;;;6.34;60.62
57847;BME280;43675;50.030;21.952;2022-11-28T13:08:29;99350.78;;;6.29;60.78
57847;BME280;43675;50.030;21.952;2022-11-28T13:11:21;99345.95;;;6.28;60.91
57847;BME280;43675;50.030;21.952;2022-11-28T13:14:26;99347.14;;;6.26;60.82
57847;BME280;43675;50.030;21.952;2022-11-28T13:16:52;99344.81;;;6.23;60.83
57847;BME280;43675;50.030;21.952;2022-11-28T13:19:33;99340.16;;;6.12;60.88
57847;BME280;43675;50.030;21.952;2022-11-28T13:22:15;99338.52;;;6.11;60.79
57847;BME280;43675;50.030;21.952;2022-11-28T13:24:47;99334.00;;;6.08;60.84
57847;BME280;43675;50.030;21.952;2022-11-28T13:27:24;99336.68;;;6.00;61.00
57847;BME280;43675;50.030;21.952;2022-11-28T13:30:02;99335.20;;;5.97;61.00
57847;BME280;43675;50.030;21.952;2022-11-28T13:32:47;99338.36;;;5.93;61.07
57847;BME280;43675;50.030;21.952;2022-11-28T13:35:15;99342.36;;;5.89;61.21
57847;BME280;43675;50.030;21.952;2022-11-28T13:43:23;99336.51;;;5.85;61.43
57847;BME280;43675;50.030;21.952;2022-11-28T13:45:49;99338.53;;;5.79;61.52
57847;BME280;43675;50.030;21.952;2022-11-28T13:53:42;99332.71;;;5.67;61.68
57847;BME280;43675;50.030;21.952;2022-11-28T13:58:56;99333.86;;;5.61;61.76
57847;BME280;43675;50.030;21.952;2022-11-28T14:01:24;99340.02;;;5.57;61.77
57847;BME280;43675;50.030;21.952;2022-11-28T14:06:41;99334.53;;;5.43;61.76
57847;BME280;43675;50.030;21.952;2022-11-28T14:14:37;99331.00;;;5.18;62.18
57847;BME280;43675;50.030;21.952;2022-11-28T14:25:48;99322.31;;;4.88;62.77
57847;BME280;43675;50.030;21.952;2022-11-28T14:28:30;99321.94;;;4.78;62.93
57847;BME280;43675;50.030;21.952;2022-11-28T14:31:03;99324.94;;;4.75;63.02
57847;BME280;43675;50.030;21.952;2022-11-28T14:33:38;99326.92;;;4.69;63.11
57847;BME280;43675;50.030;21.952;2022-11-28T14:39:09;99330.37;;;4.58;63.20
57847;BME280;43675;50.030;21.952;2022-11-28T14:47:27;99337.41;;;4.37;63.59
57847;BME280;43675;50.030;21.952;2022-11-28T14:52:43;99340.40;;;4.34;63.77
57847;BME280;43675;50.030;21.952;2022-11-28T15:00:17;99333.91;;;4.33;63.86
57847;BME280;43675;50.030;21.952;2022-11-28T15:03:13;99339.54;;;4.29;63.90
57847;BME280;43675;50.030;21.952;2022-11-28T15:05:44;99333.88;;;4.28;64.00
57847;BME280;43675;50.030;21.952;2022-11-28T15:16:23;99331.20;;;4.24;64.12
57847;BME280;43675;50.030;21.952;2022-11-28T15:18:54;99331.37;;;4.23;64.21
57847;BME280;43675;50.030;21.952;2022-11-28T15:21:20;99342.32;;;4.24;64.25
57847;BME280;43675;50.030;21.952;2022-11-28T15:23:46;99336.70;;;4.23;64.32
57847;BME280;43675;50.030;21.952;2022-11-28T15:26:27;99334.35;;;4.24;64.36
57847;BME280;43675;50.030;21.952;2022-11-28T15:29:09;99332.53;;;4.24;64.41
57847;BME280;43675;50.030;21.952;2022-11-28T15:31:36;99334.04;;;4.23;64.51
57847;BME280;43675;50.030;21.952;2022-11-28T15:34:02;99340.83;;;4.21;64.55
57847;BME280;43675;50.030;21.952;2022-11-28T15:36:29;99342.16;;;4.21;64.63
57847;BME280;43675;50.030;21.952;2022-11-28T15:38:56;99340.68;;;4.23;64.71
57847;BME280;43675;50.030;21.952;2022-11-28T15:41:23;99343.34;;;4.23;64.74
57847;BME280;43675;50.030;21.952;2022-11-28T15:43:50;99339.84;;;4.22;64.79
57847;BME280;43675;50.030;21.952;2022-11-28T15:46:19;99342.81;;;4.23;64.82
57847;BME280;43675;50.030;21.952;2022-11-28T15:48:52;99336.17;;;4.23;64.88
57847;BME280;43675;50.030;21.952;2022-11-28T15:51:24;99335.52;;;4.21;64.93
57847;BME280;43675;50.030;21.952;2022-11-28T15:53:50;99343.97;;;4.21;64.95
57847;BME280;43675;50.030;21.952;2022-11-28T15:56:15;99343.63;;;4.20;65.05
57847;BME280;43675;50.030;21.952;2022-11-28T15:58:43;99341.64;;;4.18;65.13